Christoph Krause

Olheiro - FC Augsburg
22 Fev 2028
Terça-feira
Processo

Personalidade

Adaptabilidade (11) Ambição (9) Controvérsia (11) Lealdade (4) Pressão (16) Profissionalismo (7) Espírito Esportivo (8) Temperamento (5)

Perfil

Estilo de Treinamento Democrático
Licença Nacional A
Determinação 5
Gestão de Pessoas 8
Motivação 5
Disciplina 6
Satisfação no Trabalho
100%
Fadiga
0%
Função Olheiro
Salário 69.6K p/s
Contrato 14.03.2028

Desempenho

Comportamento Bom
Eficácia do Treinamento
43%
Desenvolvimento do Jogador
50%
Prevenção de Lesões
40%
Implementação Tática
40%

Eventos Recentes

Negociação de contrato iniciada 7d atrás
Participou de uma reunião de recrutamento 7d atrás
Negociação de contrato iniciada 7d atrás
Negociação de contrato iniciada 7d atrás
Negociação de contrato iniciada 7d atrás
Negociação de contrato iniciada 7d atrás
Negociação de contrato iniciada 7d atrás
Negociação de contrato iniciada 7d atrás

Monitorando agora

98
Jogador Clube Status Habilidade Confiança Observado Última observação Último voto
Jobe Bellingham Köln Ativo 138 / 147 40% 5 30.05.2027 -
Izan Merino Málaga Ativo 121 / 119 40% 4 30.05.2027 -
Christ Inao Oulaï Fiorentina Ativo 132 / 130 40% 3 30.05.2027 -
José Pachuca Puebla Ativo 106 / 110 40% 4 29.05.2027 -
Juan Giménez Celta Ativo 116 / 118 40% 2 26.05.2027 -
Percy Jali Free State Stars Ativo 88 / 104 40% 6 24.05.2027 -
Daniel Vernattus Metalist Ativo 90 / 92 40% 1 24.05.2027 -
Arjan Malić Sturm Graz Ativo 123 / 115 40% 4 22.05.2027 -
Samuele di Benedetto Bari Ativo 114 / 125 40% 3 22.05.2027 -
Yusi Alavés Ativo 129 / 137 40% 7 18.05.2027 -
Davide Bartesaghi AC Milan Ativo 132 / 142 40% 3 17.05.2027 -
João Simões Sporting CP Ativo 129 / 146 40% 4 17.05.2027 -
Marc Bernal Real Sociedad Ativo 145 / 142 40% 3 16.05.2027 -
Gonçalo Oliveira Benfica Ativo 106 / 108 40% 1 16.05.2027 -
Kevin Vazquez Cruz Azul Ativo 139 / 153 40% 6 15.05.2027 -
Toni Tamarit Alverca Ativo 116 / 112 40% 2 15.05.2027 -
Martim Cunha Porto Ativo 103 / 108 40% 2 11.05.2027 -
Joel McGregor Swindon Town Ativo 95 / 100 40% 1 11.05.2027 -
Kees Smit AZ Ativo 140 / 151 40% 3 09.05.2027 -
Matías Gómez Granada Ativo 111 / 118 40% 2 09.05.2027 -
Jan Bürger Gillingham Ativo 111 / 122 40% 3 02.05.2027 -
Riley Owen Trento Ativo 104 / 104 40% 2 02.05.2027 -
Givairo Read Feyenoord Ativo 140 / 152 40% 3 01.05.2027 -
Daniel Costa Sporting CP Ativo 91 / 101 40% 1 28.04.2027 -
Christos Mouzakitis Hull City Ativo 133 / 128 40% 2 27.04.2027 -
Josh King Chelsea Ativo 140 / 152 40% 3 26.04.2027 -
Zane Albarus Cambridge United Ativo 98 / 96 40% 2 23.04.2027 -
Cheveyo Tsawa Club Brugge Ativo 113 / 136 40% 2 07.04.2027 -
Keagan Tau Ajax Cape Town Ativo 86 / 87 40% 1 07.04.2027 -
Lucas Høgsberg RC Strasbourg Ativo 134 / 149 40% 3 04.04.2027 -
Caleb Yirenkyi Coventry City Ativo 133 / 132 40% 2 31.03.2027 -
Tiago Freitas Benfica Ativo 112 / 119 40% 1 31.03.2027 -
Jofre Torrents Ajax Ativo 124 / 127 40% 3 26.03.2027 -
David Ozoh Derby County Ativo 118 / 121 40% 1 24.03.2027 -
Ronwen Phiri Platinum Stars Ativo 100 / 113 40% 1 18.03.2027 -
Ernie Weaver AFC Wimbledon Negociando 107 / 120 40% 3 15.03.2027 -
Jonas Harder Basel Ativo 114 / 116 40% 1 15.03.2027 -
Salvador Blopá Casa Pia Ativo 110 / 114 40% 1 15.03.2027 -
Dylan Lawlor Cardiff City Ativo 117 / 130 40% 1 09.03.2027 -
James Dornelly Peterborough United Ativo 104 / 102 40% 1 07.03.2027 -
Matvey Kislyak CSKA Moscow Ativo 134 / 149 40% 3 02.03.2027 -
Vasilije Novičić IMT Ativo 98 / 100 40% 1 23.02.2027 -
Louis Leroux FC Nantes Ativo 129 / 121 40% 1 23.02.2027 -
Pape Diong Westerlo Ativo 113 / 125 40% 1 22.02.2027 -
Jack Hinshelwood Brighton Ativo 145 / 139 40% 1 19.02.2027 -
Noah Nartey Olympique Lyonnais Ativo 132 / 143 40% 1 03.02.2027 -
José Ángel Carmona Sevilla Ativo 151 / 151 40% 2 30.12.2026 -
Víctor Gómez Braga Ativo 141 / 143 40% 1 30.12.2026 -
Renato Veiga Villarreal Ativo 147 / 144 40% 1 30.12.2026 -
Mika Mármol Feyenoord Ativo 141 / 132 40% 2 29.12.2026 -
Christian Krasnodar Ativo 140 / 134 40% 2 29.12.2026 -
André Wolverhampton Ativo 141 / 154 40% 2 27.12.2026 -
Hector Ramirez Newcastle United Ativo 152 / 162 40% 1 27.12.2026 -
Nicolò Rovella Lazio Ativo 155 / 149 40% 1 27.12.2026 -
Iván Martín Racing Santander Ativo 149 / 140 40% 3 26.12.2026 -
Ilaix Moriba Celta Ativo 153 / 149 40% 1 26.12.2026 -
Adam Wharton Crystal Palace Ativo 154 / 150 40% 4 25.12.2026 -
Nico González Newcastle United Ativo 165 / 155 40% 2 25.12.2026 -
Eric Martel Mainz 05 Ativo 143 / 149 40% 2 24.12.2026 -
Curtis Jones Inter Ativo 153 / 150 40% 2 24.12.2026 -
Nathan Collins Brentford Ativo 146 / 157 40% 1 22.12.2026 -
Pol Lozano Espanyol Ativo 140 / 138 40% 1 22.12.2026 -
Fran García Betis Ativo 149 / 143 40% 2 20.12.2026 -
Quinten Timber Crystal Palace Ativo 153 / 151 40% 3 20.12.2026 -
Sven Botman Newcastle United Ativo 156 / 146 40% 1 19.12.2026 -
Nnamdi Collins Eintracht Frankfurt Ativo 136 / 137 40% 1 19.12.2026 -
Tyrell Malacia Monaco Ativo 134 / 138 40% 3 16.12.2026 -
Angelo Stiller VfB Stuttgart Ativo 150 / 157 40% 2 16.12.2026 -
Bart van Rooij Twente Ativo 133 / 124 40% 1 16.12.2026 -
Tariq Lamptey Queens Park Rangers Ativo 132 / 132 40% 1 13.12.2026 -
Tyler Adams Bournemouth Ativo 153 / 140 40% 1 13.12.2026 -
Aaron Hickey Brentford Ativo 140 / 142 40% 2 12.12.2026 -
Philipp Treu SC Freiburg Ativo 132 / 125 40% 1 12.12.2026 -
Pape Guèye Villarreal Ativo 150 / 144 40% 2 11.12.2026 -
Loïc Badé Bayer Leverkusen Ativo 160 / 162 40% 1 10.12.2026 -
Edmond Tapsoba Bayer Leverkusen Ativo 152 / 141 40% 2 07.12.2026 -
Aitor Paredes Athletic Bilbao Ativo 150 / 137 40% 1 07.12.2026 -
Adrien Truffert Bournemouth Ativo 146 / 157 40% 2 05.12.2026 -
Nicolas Seiwald RB Leipzig Ativo 146 / 153 40% 1 05.12.2026 -
Tino Livramento Newcastle United Ativo 159 / 150 40% 1 03.12.2026 -
Michael Kayode Brentford Ativo 149 / 158 40% 1 02.12.2026 -
Kike Salas Sevilla Ativo 137 / 152 40% 1 02.12.2026 -
Ryan Sessegnon Fulham Ativo 150 / 137 40% 1 01.12.2026 -
Arnau Martínez Valencia Ativo 144 / 149 40% 1 29.11.2026 -
Florentino Luís Ipswich Town Ativo 142 / 146 40% 1 29.11.2026 -
Vanderson Monaco Ativo 141 / 153 40% 1 28.11.2026 -
Josha Vagnoman VfB Stuttgart Ativo 139 / 143 40% 1 28.11.2026 -
Dani Vivian Athletic Bilbao Ativo 154 / 145 40% 1 26.11.2026 -
Noah Sadiki Sunderland Ativo 146 / 153 40% 1 26.11.2026 -
Gavi Barcelona Ativo 159 / 166 40% 1 26.11.2026 -
Willian Pacho Paris Saint-Germain Ativo 164 / 152 40% 1 21.11.2026 -
Kevin Lomónaco Elche Ativo 130 / 125 40% 1 21.11.2026 -
Elliot Anderson Manchester City Ativo 149 / 143 40% 1 20.11.2026 -
Javi Rodríguez Celta Ativo 148 / 150 40% 1 20.11.2026 -
Pedro Porro Tottenham Ativo 150 / 143 40% 1 08.11.2026 -
Diogo Leite Union Berlin Ativo 139 / 127 40% 1 07.09.2026 -
Jorrel Hato Chelsea Ativo 141 / 148 40% 1 01.08.2026 -
Fodé Sylla Sion Ativo 112 / 113 40% 1 01.08.2026 -